createdAt,value
2023-03-27T00:02:08.933Z,13.70
2023-03-27T00:04:35.754Z,13.70
2023-03-27T00:07:03.334Z,13.70
2023-03-27T00:09:32.019Z,13.70
2023-03-27T00:11:59.155Z,13.70
2023-03-27T00:14:26.007Z,13.60
2023-03-27T00:16:52.808Z,13.60
2023-03-27T00:19:19.657Z,13.60
2023-03-27T00:21:46.417Z,13.60
2023-03-27T00:24:13.924Z,13.60
2023-03-27T00:26:40.952Z,13.60
2023-03-27T00:29:08.040Z,13.50
2023-03-27T00:31:35.663Z,13.50
2023-03-27T00:34:03.507Z,13.50
2023-03-27T00:36:30.355Z,13.50
2023-03-27T00:38:57.331Z,13.50
2023-03-27T00:41:24.304Z,13.50
2023-03-27T00:43:54.110Z,13.50
2023-03-27T00:46:39.295Z,13.40
2023-03-27T00:49:09.689Z,13.40
2023-03-27T00:51:37.192Z,13.40
2023-03-27T00:54:04.540Z,13.40
2023-03-27T00:56:33.753Z,13.40
2023-03-27T00:59:03.557Z,13.40
2023-03-27T01:01:31.301Z,13.30
2023-03-27T01:04:03.864Z,13.30
2023-03-27T01:06:31.501Z,13.30
2023-03-27T01:08:59.573Z,13.30
2023-03-27T01:11:51.017Z,13.30
2023-03-27T01:14:43.269Z,13.30
2023-03-27T01:17:21.725Z,13.30
2023-03-27T01:20:07.222Z,13.20
2023-03-27T01:22:53.158Z,13.20
2023-03-27T01:25:54.659Z,13.20
2023-03-27T01:28:54.784Z,13.20
2023-03-27T01:31:45.389Z,13.10
2023-03-27T01:34:24.931Z,13.10
2023-03-27T01:37:37.651Z,13.00
2023-03-27T01:40:07.896Z,13.10
2023-03-27T01:43:09.951Z,13.00
2023-03-27T01:45:51.595Z,13.00
2023-03-27T01:48:35.565Z,13.00
2023-03-27T01:51:09.716Z,13.00
2023-03-27T01:53:39.857Z,13.10
2023-03-27T01:56:26.078Z,13.00
2023-03-27T01:59:21.663Z,13.00
2023-03-27T02:01:53.694Z,13.00
2023-03-27T02:04:30.777Z,13.00
2023-03-27T02:07:02.114Z,13.00
2023-03-27T02:09:38.842Z,13.00
2023-03-27T02:12:12.187Z,13.00
2023-03-27T02:14:40.910Z,13.00
2023-03-27T02:17:12.929Z,13.00
2023-03-27T02:19:47.377Z,13.00
2023-03-27T02:22:15.156Z,12.90
2023-03-27T02:24:46.544Z,12.90
2023-03-27T02:27:22.326Z,12.90
2023-03-27T02:30:27.433Z,12.90
2023-03-27T02:33:20.253Z,12.90
2023-03-27T02:36:05.483Z,12.90
2023-03-27T02:38:43.993Z,12.80
2023-03-27T02:41:36.968Z,12.80
2023-03-27T02:44:31.209Z,12.90
2023-03-27T02:47:10.717Z,12.90
2023-03-27T02:49:46.792Z,12.80
2023-03-27T02:52:27.061Z,12.80
2023-03-27T02:54:56.899Z,12.80
2023-03-27T02:57:26.716Z,12.80
2023-03-27T03:00:14.202Z,12.80
2023-03-27T03:02:45.767Z,12.80
2023-03-27T03:05:22.183Z,12.80
2023-03-27T03:07:49.338Z,12.80
2023-03-27T03:10:16.987Z,12.80
2023-03-27T03:12:43.714Z,12.70
2023-03-27T03:15:11.328Z,12.70
2023-03-27T03:17:38.379Z,12.70
2023-03-27T03:20:07.293Z,12.70
2023-03-27T03:22:34.454Z,12.70
2023-03-27T03:25:01.229Z,12.70
2023-03-27T03:27:29.161Z,12.70
2023-03-27T03:30:02.307Z,12.70
2023-03-27T03:32:34.024Z,12.60
2023-03-27T03:35:01.869Z,12.60
2023-03-27T03:37:38.557Z,12.70
2023-03-27T03:40:11.888Z,12.60
2023-03-27T03:42:46.444Z,12.60
2023-03-27T03:45:13.609Z,12.60
2023-03-27T03:47:40.595Z,12.50
2023-03-27T03:50:08.188Z,12.50
2023-03-27T03:52:35.173Z,12.50
2023-03-27T03:55:04.108Z,12.50
2023-03-27T03:57:31.088Z,12.50
2023-03-27T04:00:08.790Z,12.50
2023-03-27T04:02:51.014Z,12.50
2023-03-27T04:05:18.219Z,12.50
2023-03-27T04:07:45.608Z,12.40
2023-03-27T04:10:20.318Z,12.40
2023-03-27T04:12:51.231Z,12.40
2023-03-27T04:15:27.918Z,12.40
2023-03-27T04:18:16.412Z,12.40
2023-03-27T04:20:43.637Z,12.40
2023-03-27T04:23:13.921Z,12.30
2023-03-27T04:25:41.293Z,12.30
2023-03-27T04:28:10.306Z,12.30
2023-03-27T04:30:44.055Z,12.30
2023-03-27T04:33:46.446Z,12.20
2023-03-27T04:36:32.082Z,12.20
2023-03-27T04:39:10.632Z,12.20
2023-03-27T04:41:40.930Z,12.20
2023-03-27T04:44:07.876Z,12.20
2023-03-27T04:46:39.616Z,12.20
2023-03-27T04:49:09.528Z,12.20
2023-03-27T04:51:49.570Z,12.20
2023-03-27T04:54:18.389Z,12.10
2023-03-27T04:56:46.656Z,12.20
2023-03-27T04:59:15.478Z,12.20
2023-03-27T05:01:42.911Z,12.20
2023-03-27T05:04:17.458Z,12.20
2023-03-27T05:07:04.840Z,12.20
2023-03-27T05:09:32.443Z,12.20
2023-03-27T05:11:59.287Z,12.10
2023-03-27T05:14:26.445Z,12.10
2023-03-27T05:16:57.666Z,12.10
2023-03-27T05:19:26.701Z,12.10
2023-03-27T05:21:58.716Z,12.10
2023-03-27T05:24:26.600Z,12.10
2023-03-27T05:26:53.915Z,12.10
2023-03-27T05:29:20.669Z,12.10
2023-03-27T05:31:55.712Z,12.10
2023-03-27T05:34:50.826Z,12.00
2023-03-27T05:37:19.184Z,12.00
2023-03-27T05:40:05.971Z,12.00
2023-03-27T05:42:32.957Z,12.00
2023-03-27T05:45:00.590Z,12.00
2023-03-27T05:47:28.045Z,11.90
2023-03-27T05:49:54.923Z,11.90
2023-03-27T05:52:21.746Z,11.90
2023-03-27T05:54:55.702Z,11.90
2023-03-27T05:57:22.546Z,11.90
2023-03-27T05:59:55.083Z,11.90
2023-03-27T06:02:25.348Z,11.90
2023-03-27T06:04:58.972Z,11.80
2023-03-27T06:07:30.263Z,11.80
2023-03-27T06:10:02.968Z,11.80
2023-03-27T06:12:49.716Z,11.80
2023-03-27T06:15:25.583Z,11.80
2023-03-27T06:18:12.269Z,11.80
2023-03-27T06:20:39.935Z,11.70
2023-03-27T06:23:08.241Z,11.80
2023-03-27T06:25:37.203Z,11.80
2023-03-27T06:28:07.066Z,11.80
2023-03-27T06:30:40.281Z,11.80
2023-03-27T06:33:29.813Z,11.80
2023-03-27T06:36:02.380Z,11.80
2023-03-27T06:38:32.919Z,11.80
2023-03-27T06:41:00.930Z,11.80
2023-03-27T06:43:53.891Z,11.80
2023-03-27T06:46:45.835Z,11.80
2023-03-27T06:49:17.016Z,11.90
2023-03-27T06:51:44.131Z,11.90
2023-03-27T06:54:13.477Z,11.90
2023-03-27T06:56:44.899Z,12.00
2023-03-27T06:59:16.741Z,12.00
2023-03-27T07:01:46.327Z,12.00
2023-03-27T07:04:33.348Z,12.00
2023-03-27T07:07:16.212Z,12.00
2023-03-27T07:09:43.727Z,12.10
2023-03-27T07:12:13.535Z,12.10
2023-03-27T07:14:42.581Z,12.10
2023-03-27T07:17:10.226Z,12.10
2023-03-27T07:19:51.780Z,12.10
2023-03-27T07:22:23.130Z,12.20
2023-03-27T07:24:50.845Z,12.10
2023-03-27T07:27:19.121Z,12.20
2023-03-27T07:29:46.711Z,12.20
2023-03-27T07:32:29.666Z,12.30
2023-03-27T07:35:05.446Z,12.30
2023-03-27T07:38:11.481Z,12.30
2023-03-27T07:40:46.578Z,12.40
2023-03-27T07:43:46.044Z,12.40
2023-03-27T07:46:13.689Z,12.50
2023-03-27T07:48:41.171Z,12.50
2023-03-27T07:51:14.608Z,12.60
2023-03-27T07:53:43.565Z,12.70
2023-03-27T07:56:22.064Z,12.70
2023-03-27T07:58:55.199Z,12.80
2023-03-27T08:01:22.018Z,12.80
2023-03-27T08:03:49.551Z,12.80
2023-03-27T08:06:18.716Z,12.90
2023-03-27T08:08:46.279Z,12.90
2023-03-27T08:11:19.763Z,13.00
2023-03-27T08:13:50.723Z,13.10
2023-03-27T08:16:18.494Z,13.20
2023-03-27T08:18:49.790Z,13.20
2023-03-27T08:21:17.195Z,13.30
2023-03-27T08:23:48.704Z,13.40
2023-03-27T08:26:55.230Z,13.40
2023-03-27T08:29:23.277Z,13.50
2023-03-27T08:31:50.399Z,13.60
2023-03-27T08:34:17.605Z,13.60
2023-03-27T08:36:46.992Z,13.70
2023-03-27T08:39:15.622Z,13.90
2023-03-27T08:41:59.820Z,13.90
2023-03-27T08:44:31.119Z,14.10
2023-03-27T08:47:13.506Z,14.20
2023-03-27T08:49:58.220Z,14.30
2023-03-27T08:52:31.881Z,14.50
2023-03-27T08:55:12.804Z,14.70
2023-03-27T08:57:50.232Z,14.90
2023-03-27T09:00:23.705Z,15.10
2023-03-27T09:03:01.671Z,15.30
2023-03-27T09:05:45.535Z,15.40
2023-03-27T09:08:42.184Z,15.60
2023-03-27T09:11:14.937Z,15.70
2023-03-27T09:13:54.411Z,15.80
2023-03-27T09:16:33.907Z,16.00
2023-03-27T09:19:08.520Z,16.10
2023-03-27T09:21:44.643Z,16.30
2023-03-27T09:24:36.538Z,16.40
2023-03-27T09:27:34.805Z,16.60
2023-03-27T09:30:31.532Z,16.60
2023-03-27T09:33:05.795Z,16.80
2023-03-27T09:35:35.601Z,16.90
2023-03-27T09:38:10.008Z,17.00
2023-03-27T09:40:53.355Z,17.10
2023-03-27T09:43:29.177Z,17.10
2023-03-27T09:46:00.555Z,17.20
2023-03-27T09:48:47.038Z,17.20
2023-03-27T09:51:36.404Z,17.30
2023-03-27T09:54:04.805Z,17.40
2023-03-27T09:56:42.818Z,17.30
2023-03-27T09:59:20.149Z,17.40
2023-03-27T10:01:48.713Z,17.40
2023-03-27T10:04:20.992Z,17.40
2023-03-27T10:07:08.345Z,17.40
2023-03-27T10:10:11.550Z,17.50
2023-03-27T10:12:59.497Z,17.50
2023-03-27T10:15:38.890Z,17.50
2023-03-27T10:18:21.168Z,17.60
2023-03-27T10:20:58.007Z,17.70
2023-03-27T10:23:29.388Z,17.70
2023-03-27T10:26:01.604Z,17.80
2023-03-27T10:28:45.071Z,17.80
2023-03-27T10:31:32.431Z,17.80
2023-03-27T10:34:34.751Z,18.00
2023-03-27T10:37:34.223Z,18.10
2023-03-27T10:40:25.955Z,18.20
2023-03-27T10:42:57.997Z,18.30
2023-03-27T10:45:24.902Z,18.40
2023-03-27T10:47:59.516Z,18.50
2023-03-27T10:50:53.323Z,18.50
2023-03-27T10:53:44.878Z,18.50
2023-03-27T10:56:20.060Z,18.50
2023-03-27T10:59:14.054Z,18.50
2023-03-27T11:01:45.328Z,18.60
2023-03-27T11:04:22.597Z,18.60
2023-03-27T11:06:57.527Z,18.60
2023-03-27T11:09:41.722Z,18.60
2023-03-27T11:12:14.556Z,18.80
2023-03-27T11:15:07.430Z,18.80
2023-03-27T11:17:52.396Z,18.80
2023-03-27T11:20:52.650Z,18.90
2023-03-27T11:23:57.620Z,18.90
2023-03-27T11:26:53.965Z,19.00
2023-03-27T11:29:25.902Z,19.10
2023-03-27T11:31:57.100Z,19.20
2023-03-27T11:34:42.693Z,19.40
2023-03-27T11:38:14.817Z,19.50
2023-03-27T11:40:45.552Z,19.70
2023-03-27T11:43:13.828Z,19.80
2023-03-27T11:46:04.075Z,19.90
2023-03-27T11:48:35.454Z,20.10
2023-03-27T11:51:20.737Z,20.30
2023-03-27T11:53:57.101Z,20.40
2023-03-27T11:56:57.882Z,20.60
2023-03-27T12:00:01.916Z,20.80
2023-03-27T12:02:49.295Z,20.90
2023-03-27T12:05:45.228Z,21.10
2023-03-27T12:08:22.412Z,21.30
2023-03-27T12:10:52.810Z,21.40
2023-03-27T12:13:41.798Z,21.50
2023-03-27T12:16:19.097Z,21.60
2023-03-27T12:19:27.577Z,21.60
2023-03-27T12:22:24.350Z,21.60
2023-03-27T12:25:20.050Z,21.40
2023-03-27T12:28:39.078Z,21.40
2023-03-27T12:31:32.641Z,21.30
2023-03-27T12:34:12.136Z,21.30
2023-03-27T12:36:42.815Z,21.20
2023-03-27T12:39:28.807Z,21.20
2023-03-27T12:42:13.531Z,21.30
2023-03-27T12:45:03.863Z,21.20
2023-03-27T12:47:31.089Z,21.30
2023-03-27T12:50:20.393Z,21.40
2023-03-27T12:52:51.851Z,21.40
2023-03-27T12:55:21.705Z,21.40
2023-03-27T12:57:58.497Z,21.40
2023-03-27T13:00:53.623Z,21.40
2023-03-27T13:03:46.242Z,21.30
2023-03-27T13:06:27.280Z,21.30
2023-03-27T13:09:29.482Z,21.20
2023-03-27T13:12:17.092Z,21.30
2023-03-27T13:14:54.416Z,21.30
2023-03-27T13:17:54.842Z,21.30
2023-03-27T13:20:35.792Z,21.50
2023-03-27T13:23:10.716Z,21.50
2023-03-27T13:25:44.012Z,21.60
2023-03-27T13:28:20.419Z,21.70
2023-03-27T13:30:57.307Z,21.80
2023-03-27T13:33:47.572Z,22.00
2023-03-27T13:36:29.232Z,22.20
2023-03-27T13:38:56.569Z,22.40
2023-03-27T13:41:46.573Z,22.50
2023-03-27T13:44:36.425Z,22.60
2023-03-27T13:47:21.934Z,22.60
2023-03-27T13:50:14.391Z,22.60
2023-03-27T13:53:01.042Z,22.60
2023-03-27T13:56:11.552Z,22.50
2023-03-27T13:59:03.933Z,22.50
2023-03-27T14:01:53.968Z,22.30
2023-03-27T14:04:35.162Z,22.30
2023-03-27T14:07:23.888Z,22.20
2023-03-27T14:10:18.291Z,22.30
2023-03-27T14:13:30.080Z,22.60
2023-03-27T14:16:09.790Z,22.80
2023-03-27T14:18:49.316Z,23.00
2023-03-27T14:21:31.307Z,23.30
2023-03-27T14:24:27.511Z,23.50
2023-03-27T14:27:05.268Z,23.80
2023-03-27T14:29:32.557Z,24.00
2023-03-27T14:32:07.484Z,24.20
2023-03-27T14:34:47.418Z,24.40
2023-03-27T14:37:41.937Z,24.40
2023-03-27T14:40:38.717Z,24.60
2023-03-27T14:43:08.006Z,24.70
2023-03-27T14:45:39.466Z,24.70
2023-03-27T14:48:10.010Z,24.80
2023-03-27T14:50:46.554Z,24.80
2023-03-27T14:53:18.526Z,24.70
2023-03-27T14:56:11.651Z,24.60
2023-03-27T14:58:58.131Z,24.50
2023-03-27T15:01:31.760Z,24.40
2023-03-27T15:04:03.549Z,24.30
2023-03-27T15:06:36.303Z,24.30
2023-03-27T15:09:05.541Z,24.20
2023-03-27T15:11:55.893Z,24.20
2023-03-27T15:14:30.225Z,24.10
2023-03-27T15:17:01.744Z,24.10
2023-03-27T15:19:49.551Z,24.10
2023-03-27T15:22:27.690Z,24.20
2023-03-27T15:25:18.398Z,24.10
2023-03-27T15:27:52.868Z,24.00
2023-03-27T15:30:27.732Z,24.00
2023-03-27T15:32:57.075Z,23.90
2023-03-27T15:35:36.246Z,23.80
2023-03-27T15:38:03.362Z,23.80
2023-03-27T15:40:34.015Z,23.60
2023-03-27T15:43:02.058Z,23.40
2023-03-27T15:45:59.621Z,23.30
2023-03-27T15:48:35.332Z,23.30
2023-03-27T15:51:11.375Z,23.10
2023-03-27T15:53:42.013Z,22.90
2023-03-27T15:56:43.568Z,22.80
2023-03-27T15:59:15.632Z,22.70
2023-03-27T16:01:52.606Z,22.50
2023-03-27T16:04:26.491Z,22.40
2023-03-27T16:06:55.253Z,22.30
2023-03-27T16:09:28.346Z,22.10
2023-03-27T16:11:57.068Z,22.10
2023-03-27T16:14:44.602Z,21.90
2023-03-27T16:17:25.119Z,21.90
2023-03-27T16:20:03.633Z,21.80
2023-03-27T16:22:32.587Z,21.80
2023-03-27T16:25:00.830Z,21.70
2023-03-27T16:27:48.264Z,21.70
2023-03-27T16:30:24.156Z,21.70
2023-03-27T16:32:51.123Z,21.70
2023-03-27T16:35:18.350Z,21.60
2023-03-27T16:37:45.143Z,21.60
2023-03-27T16:40:12.378Z,21.50
2023-03-27T16:42:39.211Z,21.50
2023-03-27T16:45:06.768Z,21.50
2023-03-27T16:47:33.631Z,21.40
2023-03-27T16:52:34.721Z,21.30
2023-03-27T16:55:02.785Z,21.30
2023-03-27T16:57:30.596Z,21.20
2023-03-27T16:59:57.362Z,21.20
2023-03-27T17:02:25.546Z,21.20
2023-03-27T17:04:52.570Z,21.10
2023-03-27T17:07:19.452Z,21.00
2023-03-27T17:09:46.458Z,21.00
2023-03-27T17:12:13.335Z,20.90
2023-03-27T17:14:40.378Z,20.90
2023-03-27T17:17:07.974Z,20.80
2023-03-27T17:19:34.751Z,20.80
2023-03-27T17:22:01.519Z,20.70
2023-03-27T17:24:28.301Z,20.70
2023-03-27T17:26:55.177Z,20.60
2023-03-27T17:29:21.941Z,20.50
2023-03-27T17:31:48.813Z,20.50
2023-03-27T17:34:15.755Z,20.40
2023-03-27T17:36:49.541Z,20.40
2023-03-27T17:39:16.562Z,20.30
2023-03-27T17:41:43.324Z,20.20
2023-03-27T17:44:11.984Z,20.20
2023-03-27T17:46:38.878Z,20.20
2023-03-27T17:49:05.791Z,20.10
2023-03-27T17:51:34.147Z,20.00
2023-03-27T17:54:01.928Z,20.00
2023-03-27T17:56:28.707Z,19.90
2023-03-27T17:58:55.947Z,19.90
2023-03-27T18:01:23.897Z,19.80
2023-03-27T18:03:51.207Z,19.70
2023-03-27T18:06:18.474Z,19.70
2023-03-27T18:08:46.671Z,19.60
2023-03-27T18:11:15.532Z,19.60
2023-03-27T18:13:42.562Z,19.50
2023-03-27T18:16:10.732Z,19.40
2023-03-27T18:18:39.030Z,19.40
2023-03-27T18:21:07.748Z,19.30
2023-03-27T18:23:35.149Z,19.30
2023-03-27T18:26:08.548Z,19.30
2023-03-27T18:28:35.838Z,19.20
2023-03-27T18:31:09.167Z,19.10
2023-03-27T18:33:36.119Z,19.00
2023-03-27T18:36:04.245Z,19.00
2023-03-27T18:38:31.068Z,18.90
2023-03-27T18:40:59.708Z,18.80
2023-03-27T18:43:26.806Z,18.70
2023-03-27T18:46:04.271Z,18.70
2023-03-27T18:48:31.492Z,18.60
2023-03-27T18:50:59.856Z,18.50
2023-03-27T18:53:26.914Z,18.40
2023-03-27T18:55:54.299Z,18.40
2023-03-27T18:58:24.160Z,18.30
2023-03-27T19:00:51.831Z,18.30
2023-03-27T19:03:21.000Z,18.20
2023-03-27T19:05:48.126Z,18.20
2023-03-27T19:08:15.926Z,18.10
2023-03-27T19:10:42.731Z,18.10
2023-03-27T19:13:22.304Z,18.00
2023-03-27T19:16:14.829Z,17.90
2023-03-27T19:19:01.078Z,17.80
2023-03-27T19:21:48.866Z,17.70
2023-03-27T19:24:25.278Z,17.70
2023-03-27T19:26:52.906Z,17.70
2023-03-27T19:29:20.202Z,17.60
2023-03-27T19:31:47.000Z,17.60
2023-03-27T19:34:13.872Z,17.50
2023-03-27T19:36:40.685Z,17.50
2023-03-27T19:39:08.137Z,17.50
2023-03-27T19:41:35.000Z,17.40
2023-03-27T19:44:01.853Z,17.40
2023-03-27T19:46:29.219Z,17.30
2023-03-27T19:48:56.698Z,17.30
2023-03-27T19:51:42.526Z,17.30
2023-03-27T19:54:11.750Z,17.20
2023-03-27T19:56:39.261Z,17.20
2023-03-27T19:59:06.818Z,17.10
2023-03-27T20:01:33.623Z,17.10
2023-03-27T20:04:00.923Z,17.10
2023-03-27T20:06:28.836Z,17.00
2023-03-27T20:09:00.946Z,16.90
2023-03-27T20:11:28.213Z,16.80
2023-03-27T20:13:57.031Z,16.80
2023-03-27T20:16:27.796Z,16.80
2023-03-27T20:19:03.255Z,16.70
2023-03-27T20:21:36.166Z,16.70
2023-03-27T20:24:06.809Z,16.60
2023-03-27T20:26:39.772Z,16.60
2023-03-27T20:29:16.491Z,16.60
2023-03-27T20:31:44.929Z,16.50
2023-03-27T20:34:11.913Z,16.50
2023-03-27T20:36:39.159Z,16.50
2023-03-27T20:39:19.009Z,16.40
2023-03-27T20:41:46.957Z,16.40
2023-03-27T20:44:16.727Z,16.30
2023-03-27T20:46:47.840Z,16.30
2023-03-27T20:49:37.547Z,16.30
2023-03-27T20:52:09.119Z,16.20
2023-03-27T20:54:36.457Z,16.20
2023-03-27T20:57:03.338Z,16.20
2023-03-27T20:59:30.986Z,16.10
2023-03-27T21:01:59.247Z,16.10
2023-03-27T21:04:28.189Z,16.10
2023-03-27T21:06:55.597Z,16.10
2023-03-27T21:09:23.654Z,16.00
2023-03-27T21:11:53.455Z,16.00
2023-03-27T21:14:20.310Z,16.00
2023-03-27T21:16:47.188Z,16.00
2023-03-27T21:19:13.924Z,15.90
2023-03-27T21:21:41.310Z,15.90
2023-03-27T21:24:08.170Z,15.90
2023-03-27T21:26:36.221Z,15.80
2023-03-27T21:29:03.381Z,15.80
2023-03-27T21:31:30.757Z,15.80
2023-03-27T21:33:57.742Z,15.80
2023-03-27T21:36:26.516Z,15.80
2023-03-27T21:38:55.186Z,15.70
2023-03-27T21:41:22.131Z,15.60
2023-03-27T21:43:48.993Z,15.60
2023-03-27T21:46:16.028Z,15.60
2023-03-27T21:48:44.722Z,15.60
2023-03-27T21:51:11.496Z,15.50
2023-03-27T21:53:38.322Z,15.50
2023-03-27T21:56:05.598Z,15.40
2023-03-27T21:58:32.406Z,15.40
2023-03-27T22:00:59.789Z,15.40
2023-03-27T22:03:27.929Z,15.30
2023-03-27T22:06:10.322Z,15.30
2023-03-27T22:08:39.272Z,15.30
2023-03-27T22:11:06.645Z,15.30
2023-03-27T22:13:38.015Z,15.20
2023-03-27T22:16:13.098Z,15.20
2023-03-27T22:18:40.539Z,15.20
2023-03-27T22:21:16.565Z,15.10
2023-03-27T22:23:43.791Z,15.10
2023-03-27T22:26:10.674Z,15.10
2023-03-27T22:28:37.581Z,15.00
2023-03-27T22:31:04.669Z,15.00
2023-03-27T22:33:32.013Z,15.00
2023-03-27T22:35:58.919Z,15.00
2023-03-27T22:38:30.356Z,14.90
2023-03-27T22:40:57.871Z,14.90
2023-03-27T22:43:24.975Z,14.90
2023-03-27T22:45:52.527Z,14.90
2023-03-27T22:48:19.577Z,14.80
2023-03-27T22:50:54.457Z,14.80
2023-03-27T22:53:22.125Z,14.80
2023-03-27T22:55:49.943Z,14.80
2023-03-27T22:58:17.323Z,14.70
2023-03-27T23:00:46.384Z,14.70
2023-03-27T23:03:13.654Z,14.70
2023-03-27T23:05:41.762Z,14.70
2023-03-27T23:08:09.057Z,14.60
2023-03-27T23:10:36.058Z,14.60
2023-03-27T23:13:03.147Z,14.60
2023-03-27T23:15:31.062Z,14.60
2023-03-27T23:17:58.002Z,14.50
2023-03-27T23:20:24.738Z,14.50
2023-03-27T23:22:51.453Z,14.50
2023-03-27T23:25:18.213Z,14.50
2023-03-27T23:27:45.241Z,14.50
2023-03-27T23:30:12.395Z,14.40
2023-03-27T23:32:39.295Z,14.40
2023-03-27T23:35:08.013Z,14.40
2023-03-27T23:37:37.777Z,14.30
2023-03-27T23:40:05.472Z,14.30
2023-03-27T23:42:32.193Z,14.30
2023-03-27T23:44:58.911Z,14.20
2023-03-27T23:47:25.794Z,14.20
2023-03-27T23:49:52.576Z,14.20
2023-03-27T23:52:19.287Z,14.20
2023-03-27T23:54:46.130Z,14.10
2023-03-27T23:57:12.880Z,14.10
2023-03-27T23:59:39.624Z,14.10
